createdAt,value
2019-02-11T00:00:54.025Z,6.13
2019-02-11T00:03:23.097Z,5.93
2019-02-11T00:05:52.176Z,4.90
2019-02-11T00:08:21.155Z,5.00
2019-02-11T00:10:50.239Z,4.90
2019-02-11T00:13:19.297Z,5.83
2019-02-11T00:15:48.383Z,5.27
2019-02-11T00:18:17.445Z,5.77
2019-02-11T00:20:46.448Z,6.67
2019-02-11T00:23:15.601Z,5.47
2019-02-11T00:25:44.683Z,4.97
2019-02-11T00:28:13.726Z,6.20
2019-02-11T00:30:42.808Z,5.23
2019-02-11T00:33:11.881Z,2.77
2019-02-11T00:35:40.970Z,1.60
2019-02-11T00:38:10.053Z,1.30
2019-02-11T00:40:39.131Z,1.50
2019-02-11T00:43:08.310Z,1.73
2019-02-11T00:45:37.386Z,2.07
2019-02-11T00:48:07.232Z,1.63
2019-02-11T00:50:36.380Z,1.50
2019-02-11T00:53:05.438Z,2.03
2019-02-11T00:55:34.514Z,1.80
2019-02-11T00:58:03.571Z,2.33
2019-02-11T01:00:32.745Z,1.90
2019-02-11T01:03:01.800Z,1.83
2019-02-11T01:05:30.875Z,1.97
2019-02-11T01:07:59.936Z,2.27
2019-02-11T01:10:29.038Z,2.07
2019-02-11T01:12:58.086Z,2.57
2019-02-11T01:15:27.206Z,2.80
2019-02-11T01:17:56.331Z,2.70
2019-02-11T01:20:25.404Z,3.10
2019-02-11T01:22:54.454Z,2.97
2019-02-11T01:25:23.559Z,3.40
2019-02-11T01:27:52.626Z,3.37
2019-02-11T01:30:21.676Z,3.80
2019-02-11T01:32:50.753Z,3.77
2019-02-11T01:35:19.837Z,3.30
2019-02-11T01:37:48.982Z,4.57
2019-02-11T01:40:18.041Z,5.60
2019-02-11T01:42:47.069Z,4.93
2019-02-11T01:45:15.798Z,8.47
2019-02-11T01:47:44.888Z,7.07
2019-02-11T01:50:14.147Z,6.20
2019-02-11T01:52:43.216Z,6.60
2019-02-11T01:55:12.243Z,7.10
2019-02-11T01:57:41.307Z,7.13
2019-02-11T02:00:12.830Z,6.03
2019-02-11T02:02:42.100Z,5.77
2019-02-11T02:05:11.182Z,4.70
2019-02-11T02:07:40.305Z,4.77
2019-02-11T02:10:11.432Z,5.67
2019-02-11T02:12:40.530Z,6.13
2019-02-11T02:15:09.911Z,5.80
2019-02-11T02:17:38.903Z,6.43
2019-02-11T02:20:09.295Z,5.90
2019-02-11T02:22:38.386Z,5.80
2019-02-11T02:25:07.823Z,4.23
2019-02-11T02:27:36.883Z,4.37
2019-02-11T02:30:06.544Z,6.47
2019-02-11T02:32:35.581Z,6.50
2019-02-11T02:35:04.752Z,7.70
2019-02-11T02:37:33.812Z,6.97
2019-02-11T02:40:02.897Z,6.70
2019-02-11T02:42:31.988Z,7.27
2019-02-11T02:45:01.072Z,5.90
2019-02-11T02:47:30.132Z,4.47
2019-02-11T02:49:59.209Z,4.30
2019-02-11T02:52:28.276Z,3.80
2019-02-11T02:54:57.376Z,3.47
2019-02-11T02:57:26.438Z,2.97
2019-02-11T02:59:55.584Z,3.53
2019-02-11T03:02:24.730Z,3.50
2019-02-11T03:04:53.812Z,3.50
2019-02-11T03:07:22.862Z,3.93
2019-02-11T03:09:51.954Z,2.90
2019-02-11T03:12:21.121Z,3.07
2019-02-11T03:14:50.204Z,3.60
2019-02-11T03:17:19.352Z,3.53
2019-02-11T03:19:48.435Z,4.67
2019-02-11T03:22:17.511Z,4.27
2019-02-11T03:24:46.514Z,5.30
2019-02-11T03:27:15.612Z,4.30
2019-02-11T03:29:44.705Z,3.33
2019-02-11T03:32:13.760Z,3.30
2019-02-11T03:34:42.938Z,3.10
2019-02-11T03:37:11.987Z,2.90
2019-02-11T03:39:41.078Z,2.83
2019-02-11T03:42:10.135Z,3.23
2019-02-11T03:44:39.222Z,3.97
2019-02-11T03:47:08.303Z,3.17
2019-02-11T03:49:37.395Z,3.30
2019-02-11T03:52:06.624Z,2.90
2019-02-11T03:54:35.719Z,3.47
2019-02-11T03:57:04.813Z,3.10
2019-02-11T03:59:33.968Z,3.43
2019-02-11T04:02:02.990Z,3.57
2019-02-11T04:04:32.054Z,3.70
2019-02-11T04:07:01.146Z,3.47
2019-02-11T04:09:30.211Z,3.03
2019-02-11T04:11:59.288Z,3.17
2019-02-11T04:14:28.358Z,3.10
2019-02-11T04:16:57.498Z,3.53
2019-02-11T04:19:26.694Z,2.77
2019-02-11T04:22:08.860Z,3.50
2019-02-11T04:24:37.994Z,3.50
2019-02-11T04:27:07.079Z,3.13
2019-02-11T04:29:36.138Z,3.47
2019-02-11T04:32:05.202Z,3.73
2019-02-11T04:34:34.255Z,6.30
2019-02-11T04:37:03.336Z,5.63
2019-02-11T04:39:32.430Z,5.30
2019-02-11T04:42:01.518Z,5.10
2019-02-11T04:44:34.103Z,4.50
2019-02-11T04:47:01.375Z,4.13
2019-02-11T04:49:30.434Z,4.33
2019-02-11T04:51:59.560Z,4.03
2019-02-11T04:54:28.692Z,3.97
2019-02-11T04:56:57.680Z,3.80
2019-02-11T04:59:26.672Z,3.60
2019-02-11T05:01:55.742Z,3.73
2019-02-11T05:04:24.819Z,3.70
2019-02-11T05:06:53.914Z,3.90
2019-02-11T05:09:23.013Z,4.03
2019-02-11T05:11:52.113Z,4.43
2019-02-11T05:14:21.299Z,4.60
2019-02-11T05:16:50.444Z,5.17
2019-02-11T05:19:19.460Z,5.17
2019-02-11T05:21:48.539Z,4.97
2019-02-11T05:24:17.606Z,5.73
2019-02-11T05:26:46.613Z,4.10
2019-02-11T05:29:15.701Z,3.80
2019-02-11T05:31:44.764Z,4.40
2019-02-11T05:34:13.855Z,4.10
2019-02-11T05:36:42.921Z,4.87
2019-02-11T05:39:12.014Z,3.80
2019-02-11T05:41:41.058Z,4.00
2019-02-11T05:44:10.154Z,4.50
2019-02-11T05:46:39.213Z,4.80
2019-02-11T05:49:08.305Z,4.10
2019-02-11T05:51:37.367Z,5.07
2019-02-11T05:54:06.459Z,5.07
2019-02-11T05:56:35.460Z,5.93
2019-02-11T05:59:04.553Z,6.23
2019-02-11T06:01:33.538Z,7.37
2019-02-11T06:04:02.673Z,7.03
2019-02-11T06:06:31.735Z,5.67
2019-02-11T06:09:00.840Z,4.63
2019-02-11T06:11:29.901Z,4.00
2019-02-11T06:13:58.917Z,4.63
2019-02-11T06:16:27.982Z,4.03
2019-02-11T06:18:57.091Z,4.67
2019-02-11T06:21:26.176Z,4.03
2019-02-11T06:23:55.382Z,4.93
2019-02-11T06:26:24.503Z,5.90
2019-02-11T06:28:53.611Z,4.87
2019-02-11T06:31:22.633Z,4.03
2019-02-11T06:33:51.735Z,3.97
2019-02-11T06:36:20.801Z,4.47
2019-02-11T06:38:49.900Z,4.17
2019-02-11T06:41:18.965Z,4.93
2019-02-11T06:43:48.109Z,5.20
2019-02-11T06:46:17.206Z,6.40
2019-02-11T06:48:46.242Z,5.10
2019-02-11T06:51:15.216Z,4.80
2019-02-11T06:53:44.237Z,3.87
2019-02-11T06:56:13.311Z,4.40
2019-02-11T06:58:42.422Z,4.60
2019-02-11T07:01:11.537Z,4.93
2019-02-11T07:03:40.643Z,4.37
2019-02-11T07:06:09.707Z,4.97
2019-02-11T07:08:38.846Z,5.47
2019-02-11T07:11:07.920Z,5.53
2019-02-11T07:13:36.959Z,5.77
2019-02-11T07:16:05.996Z,5.80
2019-02-11T07:18:37.021Z,5.77
2019-02-11T07:21:05.831Z,5.77
2019-02-11T07:23:34.924Z,6.83
2019-02-11T07:26:03.970Z,8.63
2019-02-11T07:28:33.228Z,11.17
2019-02-11T07:31:02.295Z,8.70
2019-02-11T07:33:33.684Z,8.80
2019-02-11T07:36:02.768Z,7.93
2019-02-11T07:38:31.851Z,9.20
2019-02-11T07:41:01.270Z,8.40
2019-02-11T07:43:49.322Z,7.07
2019-02-11T07:46:25.656Z,7.47
2019-02-11T07:48:54.768Z,7.63
2019-02-11T07:51:23.809Z,7.57
2019-02-11T07:53:52.994Z,6.17
2019-02-11T07:56:22.052Z,5.47
2019-02-11T07:58:51.169Z,6.93
2019-02-11T08:01:20.335Z,6.53
2019-02-11T08:03:49.440Z,7.27
2019-02-11T08:06:18.552Z,7.00
2019-02-11T08:08:47.759Z,7.60
2019-02-11T08:11:16.794Z,7.30
2019-02-11T08:13:45.901Z,8.37
2019-02-11T08:16:14.981Z,8.97
2019-02-11T08:18:44.103Z,11.47
2019-02-11T08:21:13.258Z,9.60
2019-02-11T08:23:42.368Z,7.13
2019-02-11T08:26:11.432Z,4.97
2019-02-11T08:28:40.563Z,5.33
2019-02-11T08:31:09.681Z,4.90
2019-02-11T08:33:38.701Z,5.07
2019-02-11T08:36:07.788Z,5.03
2019-02-11T08:38:37.907Z,4.90
2019-02-11T08:41:07.840Z,4.80
2019-02-11T08:43:36.921Z,5.33
2019-02-11T08:46:05.993Z,5.40
2019-02-11T08:48:35.098Z,5.97
2019-02-11T08:51:04.202Z,5.70
2019-02-11T08:53:33.289Z,6.30
2019-02-11T08:56:03.460Z,5.70
2019-02-11T08:58:32.667Z,5.97
2019-02-11T09:01:01.867Z,5.03
2019-02-11T09:03:30.961Z,5.27
2019-02-11T09:06:00.031Z,7.27
2019-02-11T09:08:29.235Z,5.57
2019-02-11T09:10:58.329Z,5.60
2019-02-11T09:13:27.441Z,5.10
2019-02-11T09:15:56.542Z,6.17
2019-02-11T09:18:25.685Z,5.50
2019-02-11T09:20:54.809Z,5.77
2019-02-11T09:23:23.863Z,6.40
2019-02-11T09:25:52.946Z,4.73
2019-02-11T09:28:22.059Z,5.50
2019-02-11T09:30:51.143Z,5.93
2019-02-11T09:33:20.234Z,5.37
2019-02-11T09:35:49.418Z,5.07
2019-02-11T09:38:18.457Z,5.47
2019-02-11T09:40:47.522Z,5.47
2019-02-11T09:43:16.573Z,4.50
2019-02-11T09:45:45.576Z,4.33
2019-02-11T09:48:14.654Z,5.10
2019-02-11T09:50:46.242Z,4.43
2019-02-11T09:53:15.306Z,5.53
2019-02-11T09:55:44.398Z,5.60
2019-02-11T09:58:13.559Z,4.53
2019-02-11T10:00:42.665Z,5.33
2019-02-11T10:03:11.736Z,5.40
2019-02-11T10:05:40.798Z,6.70
2019-02-11T10:08:09.870Z,6.83
2019-02-11T10:10:39.018Z,5.63
2019-02-11T10:13:08.089Z,5.13
2019-02-11T10:15:37.322Z,5.37
2019-02-11T10:18:06.360Z,5.30
2019-02-11T10:20:35.436Z,5.80
2019-02-11T10:23:04.566Z,4.53
2019-02-11T10:25:33.650Z,4.87
2019-02-11T10:28:05.419Z,4.90
2019-02-11T10:30:34.714Z,5.17
2019-02-11T10:33:03.818Z,6.60
2019-02-11T10:35:32.888Z,4.83
2019-02-11T10:38:02.021Z,6.17
2019-02-11T10:40:31.075Z,7.63
2019-02-11T10:43:00.142Z,7.50
2019-02-11T10:45:36.457Z,8.07
2019-02-11T10:48:00.106Z,7.03
2019-02-11T10:50:29.212Z,6.67
2019-02-11T10:52:58.273Z,6.50
2019-02-11T10:55:27.365Z,6.23
2019-02-11T10:57:56.531Z,5.77
2019-02-11T11:00:25.937Z,6.13
2019-02-11T11:02:55.161Z,4.97
2019-02-11T11:05:24.258Z,4.70
2019-02-11T11:07:53.414Z,5.07
2019-02-11T11:10:25.355Z,5.03
2019-02-11T11:12:54.434Z,4.53
2019-02-11T11:15:24.001Z,4.20
2019-02-11T11:17:53.058Z,3.80
2019-02-11T11:20:22.141Z,4.43
2019-02-11T11:22:51.214Z,4.17
2019-02-11T11:25:20.437Z,4.80
2019-02-11T11:27:49.515Z,4.97
2019-02-11T11:30:18.777Z,4.17
2019-02-11T11:32:47.966Z,4.00
2019-02-11T11:35:17.781Z,4.87
2019-02-11T11:37:46.807Z,6.43
2019-02-11T11:40:16.909Z,5.67
2019-02-11T11:42:45.972Z,6.20
2019-02-11T11:45:16.476Z,6.40
2019-02-11T11:47:45.860Z,5.83
2019-02-11T11:50:15.628Z,6.20
2019-02-11T11:52:44.792Z,5.90
2019-02-11T11:55:14.341Z,6.13
2019-02-11T11:57:43.447Z,5.67
2019-02-11T12:00:17.503Z,4.97
2019-02-11T12:03:00.708Z,4.73
2019-02-11T12:05:17.540Z,4.70
2019-02-11T12:07:46.848Z,4.27
2019-02-11T12:10:15.968Z,7.40
2019-02-11T12:12:45.132Z,8.20
2019-02-11T12:15:14.439Z,7.07
2019-02-11T12:17:44.107Z,6.97
2019-02-11T12:20:13.425Z,6.40
2019-02-11T12:22:42.520Z,4.73
2019-02-11T12:25:12.737Z,4.43
2019-02-11T12:27:41.777Z,5.37
2019-02-11T12:30:13.645Z,5.23
2019-02-11T12:32:42.753Z,4.90
2019-02-11T12:35:12.558Z,4.50
2019-02-11T12:37:41.800Z,6.87
2019-02-11T12:40:11.100Z,5.20
2019-02-11T12:42:40.294Z,11.17
2019-02-11T12:45:11.909Z,4.43
2019-02-11T12:47:40.971Z,3.83
2019-02-11T12:50:10.738Z,3.70
2019-02-11T12:52:39.854Z,4.20
2019-02-11T12:55:09.993Z,3.07
2019-02-11T12:57:39.112Z,3.50
2019-02-11T13:00:19.238Z,3.23
2019-02-11T13:02:48.577Z,3.50
2019-02-11T13:05:22.142Z,4.93
2019-02-11T13:07:48.529Z,4.77
2019-02-11T13:10:19.262Z,3.87
2019-02-11T13:12:48.357Z,3.87
2019-02-11T13:15:41.627Z,3.97
2019-02-11T13:17:48.512Z,3.43
2019-02-11T13:20:17.751Z,3.83
2019-02-11T13:22:46.875Z,2.90
2019-02-11T13:25:16.045Z,3.23
2019-02-11T13:27:45.175Z,3.63
2019-02-11T13:30:16.135Z,4.63
2019-02-11T13:32:45.310Z,3.53
2019-02-11T13:35:14.488Z,5.00
2019-02-11T13:37:43.651Z,3.50
2019-02-11T13:40:12.961Z,4.90
2019-02-11T13:42:42.078Z,6.53
2019-02-11T13:45:13.209Z,9.10
2019-02-11T13:47:53.849Z,9.43
2019-02-11T13:50:15.418Z,17.23
2019-02-11T13:52:44.642Z,5.90
2019-02-11T13:55:13.799Z,3.60
2019-02-11T13:57:42.985Z,2.60
2019-02-11T14:00:21.721Z,3.53
2019-02-11T14:02:52.428Z,3.67
2019-02-11T14:05:22.231Z,3.53
2019-02-11T14:07:51.410Z,2.63
2019-02-11T14:10:20.595Z,2.50
2019-02-11T14:12:49.984Z,3.27
2019-02-11T14:15:20.979Z,4.40
2019-02-11T14:17:49.889Z,4.60
2019-02-11T14:20:26.247Z,4.73
2019-02-11T14:22:55.444Z,3.77
2019-02-11T14:25:41.022Z,3.80
2019-02-11T14:27:55.418Z,3.80
2019-02-11T14:30:23.909Z,3.10
2019-02-11T14:32:53.089Z,2.80
2019-02-11T14:35:22.204Z,4.83
2019-02-11T14:37:51.344Z,5.33
2019-02-11T14:40:20.403Z,4.00
2019-02-11T14:42:49.481Z,3.37
2019-02-11T14:45:18.539Z,3.97
2019-02-11T14:47:47.653Z,2.90
2019-02-11T14:50:16.798Z,3.10
2019-02-11T14:52:45.894Z,2.73
2019-02-11T14:55:14.977Z,2.77
2019-02-11T14:57:44.044Z,2.77
2019-02-11T15:00:21.953Z,3.33
2019-02-11T15:02:51.035Z,2.97
2019-02-11T15:05:20.211Z,3.07
2019-02-11T15:07:49.300Z,3.37
2019-02-11T15:10:19.701Z,2.57
2019-02-11T15:12:48.901Z,3.67
2019-02-11T15:15:17.962Z,2.93
2019-02-11T15:17:47.091Z,3.50
2019-02-11T15:20:16.180Z,3.20
2019-02-11T15:22:45.345Z,3.57
2019-02-11T15:25:15.689Z,2.97
2019-02-11T15:27:44.951Z,4.07
2019-02-11T15:30:15.985Z,4.00
2019-02-11T15:32:45.067Z,3.70
2019-02-11T15:35:14.214Z,4.07
2019-02-11T15:37:43.388Z,3.10
2019-02-11T15:40:14.480Z,4.70
2019-02-11T15:42:43.579Z,4.70
2019-02-11T15:45:13.676Z,3.10
2019-02-11T15:47:42.828Z,3.60
2019-02-11T15:50:12.495Z,4.30
2019-02-11T15:52:41.877Z,5.43
2019-02-11T15:55:12.907Z,8.37
2019-02-11T15:57:42.043Z,5.97
2019-02-11T16:00:13.933Z,4.30
2019-02-11T16:02:43.084Z,4.73
2019-02-11T16:05:16.028Z,5.13
2019-02-11T16:07:42.992Z,5.30
2019-02-11T16:10:14.106Z,10.67
2019-02-11T16:12:43.179Z,7.20
2019-02-11T16:15:12.282Z,6.73
2019-02-11T16:17:41.385Z,5.73
2019-02-11T16:20:10.547Z,4.13
2019-02-11T16:22:39.661Z,4.50
2019-02-11T16:25:10.188Z,4.00
2019-02-11T16:27:39.302Z,7.13
2019-02-11T16:30:10.980Z,4.77
2019-02-11T16:32:40.096Z,5.20
2019-02-11T16:35:09.852Z,3.87
2019-02-11T16:37:38.944Z,5.50
2019-02-11T16:40:10.649Z,3.70
2019-02-11T16:42:39.672Z,4.23
2019-02-11T16:45:09.467Z,4.57
2019-02-11T16:47:38.593Z,5.33
2019-02-11T16:50:07.828Z,6.07
2019-02-11T16:52:37.024Z,7.37
2019-02-11T16:55:06.214Z,6.30
2019-02-11T16:57:35.283Z,6.00
2019-02-11T17:00:04.642Z,5.20
2019-02-11T17:02:33.726Z,5.63
2019-02-11T17:05:02.979Z,6.53
2019-02-11T17:07:32.072Z,6.80
2019-02-11T17:10:01.143Z,4.60
2019-02-11T17:12:30.242Z,6.60
2019-02-11T17:14:59.326Z,6.30
2019-02-11T17:17:28.417Z,6.80
2019-02-11T17:19:57.460Z,7.47
2019-02-11T17:22:26.548Z,7.50
2019-02-11T17:24:55.558Z,6.53
2019-02-11T17:27:24.726Z,5.07
2019-02-11T17:29:53.800Z,4.23
2019-02-11T17:32:22.896Z,4.73
2019-02-11T17:34:51.959Z,3.60
2019-02-11T17:37:21.047Z,5.23
2019-02-11T17:39:50.108Z,12.77
2019-02-11T17:42:19.175Z,5.57
2019-02-11T17:44:48.264Z,5.97
2019-02-11T17:47:17.327Z,7.20
2019-02-11T17:49:46.431Z,7.13
2019-02-11T17:52:15.651Z,6.17
2019-02-11T17:54:44.737Z,5.97
2019-02-11T17:57:13.800Z,6.40
2019-02-11T17:59:42.886Z,6.13
2019-02-11T18:02:14.438Z,8.17
2019-02-11T18:04:43.688Z,9.43
2019-02-11T18:07:12.838Z,6.63
2019-02-11T18:09:41.953Z,5.50
2019-02-11T18:12:11.118Z,6.30
2019-02-11T18:14:40.105Z,4.63
2019-02-11T18:17:09.185Z,4.87
2019-02-11T18:19:38.277Z,4.57
2019-02-11T18:22:07.458Z,5.00
2019-02-11T18:24:36.589Z,5.93
2019-02-11T18:27:05.646Z,5.67
2019-02-11T18:29:34.765Z,5.07
2019-02-11T18:32:03.940Z,4.93
2019-02-11T18:34:33.030Z,4.97
2019-02-11T18:37:02.135Z,5.13
2019-02-11T18:39:31.224Z,5.07
2019-02-11T18:42:00.311Z,5.83
2019-02-11T18:44:29.384Z,4.67
2019-02-11T18:46:58.474Z,5.70
2019-02-11T18:49:34.332Z,6.47
2019-02-11T18:51:58.370Z,6.03
2019-02-11T18:54:27.426Z,5.53
2019-02-11T18:56:56.542Z,6.50
2019-02-11T18:59:25.642Z,8.13
2019-02-11T19:01:54.730Z,7.67
2019-02-11T19:04:23.824Z,7.37
2019-02-11T19:06:52.884Z,6.60
2019-02-11T19:09:22.168Z,6.90
2019-02-11T19:11:51.242Z,7.03
2019-02-11T19:14:20.294Z,7.27
2019-02-11T19:16:49.396Z,7.33
2019-02-11T19:19:18.454Z,7.17
2019-02-11T19:21:47.944Z,7.13
2019-02-11T19:24:17.038Z,7.07
2019-02-11T19:26:46.184Z,7.47
2019-02-11T19:29:15.316Z,7.23
2019-02-11T19:31:44.448Z,6.80
2019-02-11T19:34:13.524Z,6.50
2019-02-11T19:36:42.682Z,6.97
2019-02-11T19:39:11.843Z,6.60
2019-02-11T19:41:40.934Z,7.33
2019-02-11T19:44:09.998Z,6.90
2019-02-11T19:46:39.097Z,8.40
2019-02-11T19:49:08.158Z,7.80
2019-02-11T19:51:37.235Z,6.10
2019-02-11T19:54:06.321Z,7.00
2019-02-11T19:56:35.450Z,6.90
2019-02-11T19:59:04.540Z,7.57
2019-02-11T20:01:33.612Z,8.20
2019-02-11T20:04:07.674Z,8.83
2019-02-11T20:06:33.497Z,8.70
2019-02-11T20:09:02.652Z,8.33
2019-02-11T20:11:31.650Z,8.33
2019-02-11T20:14:00.749Z,33.83
2019-02-11T20:16:29.898Z,27.30
2019-02-11T20:18:59.019Z,23.83
2019-02-11T20:21:28.101Z,13.10
2019-02-11T20:23:57.204Z,13.10
2019-02-11T20:26:26.268Z,15.80
2019-02-11T20:28:55.498Z,15.93
2019-02-11T20:31:24.640Z,16.80
2019-02-11T20:33:53.887Z,15.67
2019-02-11T20:36:22.891Z,14.70
2019-02-11T20:38:51.986Z,13.73
2019-02-11T20:41:20.960Z,13.50
2019-02-11T20:43:50.094Z,15.13
2019-02-11T20:46:19.100Z,14.27
2019-02-11T20:48:48.210Z,14.37
2019-02-11T20:51:17.422Z,16.47
2019-02-11T20:53:46.892Z,17.13
2019-02-11T20:56:15.935Z,16.33
2019-02-11T20:58:45.067Z,16.60
2019-02-11T21:01:14.154Z,16.50
2019-02-11T21:03:43.233Z,16.97
2019-02-11T21:06:12.298Z,16.77
2019-02-11T21:08:41.431Z,15.77
2019-02-11T21:11:10.582Z,12.97
2019-02-11T21:13:39.721Z,13.27
2019-02-11T21:16:08.790Z,13.40
2019-02-11T21:18:37.947Z,11.23
2019-02-11T21:21:07.025Z,10.33
2019-02-11T21:23:36.208Z,11.97
2019-02-11T21:26:05.373Z,11.30
2019-02-11T21:28:34.473Z,13.37
2019-02-11T21:31:03.571Z,11.93
2019-02-11T21:33:32.731Z,14.87
2019-02-11T21:36:01.855Z,18.07
2019-02-11T21:38:30.953Z,20.20
2019-02-11T21:41:00.302Z,19.50
2019-02-11T21:43:29.332Z,19.40
2019-02-11T21:45:58.402Z,19.30
2019-02-11T21:48:27.709Z,17.50
2019-02-11T21:50:56.763Z,20.13
2019-02-11T21:53:25.856Z,20.07
2019-02-11T21:55:54.934Z,19.97
2019-02-11T21:58:23.969Z,20.77
2019-02-11T22:01:01.846Z,19.17
2019-02-11T22:03:24.103Z,21.30
2019-02-11T22:05:53.228Z,23.07
2019-02-11T22:08:22.362Z,23.60
2019-02-11T22:10:51.435Z,21.00
2019-02-11T22:13:20.537Z,20.47
2019-02-11T22:15:49.593Z,20.13
2019-02-11T22:18:18.710Z,17.20
2019-02-11T22:20:47.772Z,17.17
2019-02-11T22:23:16.868Z,16.60
2019-02-11T22:25:45.942Z,18.43
2019-02-11T22:28:15.014Z,20.53
2019-02-11T22:30:44.110Z,22.57
2019-02-11T22:33:13.212Z,21.77
2019-02-11T22:35:42.274Z,21.90
2019-02-11T22:38:11.368Z,18.60
2019-02-11T22:40:40.417Z,15.53
2019-02-11T22:43:09.462Z,12.83
2019-02-11T22:45:38.815Z,13.43
2019-02-11T22:48:07.878Z,14.67
2019-02-11T22:50:43.028Z,16.17
2019-02-11T22:53:07.686Z,16.13
2019-02-11T22:55:36.787Z,16.03
2019-02-11T22:58:05.857Z,14.50
2019-02-11T23:00:47.141Z,14.73
2019-02-11T23:03:16.567Z,14.43
2019-02-11T23:05:45.666Z,14.30
2019-02-11T23:08:14.757Z,15.00
2019-02-11T23:10:43.843Z,16.90
2019-02-11T23:13:12.985Z,16.33
2019-02-11T23:15:42.062Z,16.50
2019-02-11T23:18:11.108Z,16.13
2019-02-11T23:20:40.282Z,16.43
2019-02-11T23:23:09.354Z,14.10
2019-02-11T23:25:38.459Z,12.67
2019-02-11T23:28:07.555Z,13.97
2019-02-11T23:30:36.682Z,13.37
2019-02-11T23:33:05.762Z,13.00
2019-02-11T23:35:34.927Z,16.90
2019-02-11T23:38:04.210Z,15.10
2019-02-11T23:40:33.377Z,16.87
2019-02-11T23:43:02.439Z,17.47
2019-02-11T23:45:31.566Z,18.03
2019-02-11T23:48:00.619Z,13.97
2019-02-11T23:50:29.704Z,12.80
2019-02-11T23:52:58.808Z,13.20
2019-02-11T23:55:28.179Z,13.60
2019-02-11T23:57:57.347Z,12.23
